sensor_id;sensor_type;location;lat;lon;timestamp;P1;durP1;ratioP1;P2;durP2;ratioP2
9142;SDS011;54072;47.410;8.446;2023-03-25T00:01:15;2.17;;;1.77;;
9142;SDS011;54072;47.410;8.446;2023-03-25T00:04:38;2.70;;;2.10;;
9142;SDS011;54072;47.410;8.446;2023-03-25T00:07:59;2.73;;;2.00;;
9142;SDS011;54072;47.410;8.446;2023-03-25T00:10:59;1.63;;;1.30;;
9142;SDS011;54072;47.410;8.446;2023-03-25T00:13:29;3.27;;;1.23;;
9142;SDS011;54072;47.410;8.446;2023-03-25T00:15:57;4.53;;;1.53;;
9142;SDS011;54072;47.410;8.446;2023-03-25T00:18:26;2.37;;;1.23;;
9142;SDS011;54072;47.410;8.446;2023-03-25T00:21:01;2.70;;;1.30;;
9142;SDS011;54072;47.410;8.446;2023-03-25T00:23:29;1.17;;;1.00;;
9142;SDS011;54072;47.410;8.446;2023-03-25T00:25:58;4.10;;;1.00;;
9142;SDS011;54072;47.410;8.446;2023-03-25T00:28:26;1.00;;;0.80;;
9142;SDS011;54072;47.410;8.446;2023-03-25T00:30:57;1.30;;;1.00;;
9142;SDS011;54072;47.410;8.446;2023-03-25T00:33:27;1.10;;;0.60;;
9142;SDS011;54072;47.410;8.446;2023-03-25T00:35:55;0.80;;;0.80;;
9142;SDS011;54072;47.410;8.446;2023-03-25T00:38:26;1.30;;;1.10;;
9142;SDS011;54072;47.410;8.446;2023-03-25T00:41:06;1.00;;;0.90;;
9142;SDS011;54072;47.410;8.446;2023-03-25T00:43:35;1.47;;;0.80;;
9142;SDS011;54072;47.410;8.446;2023-03-25T00:46:03;1.17;;;0.60;;
9142;SDS011;54072;47.410;8.446;2023-03-25T00:48:31;1.40;;;0.90;;
9142;SDS011;54072;47.410;8.446;2023-03-25T00:50:59;2.07;;;0.90;;
9142;SDS011;54072;47.410;8.446;2023-03-25T00:53:33;1.50;;;1.20;;
9142;SDS011;54072;47.410;8.446;2023-03-25T00:56:02;1.27;;;1.10;;
9142;SDS011;54072;47.410;8.446;2023-03-25T00:58:30;1.93;;;1.73;;
9142;SDS011;54072;47.410;8.446;2023-03-25T01:00:58;2.77;;;1.10;;
9142;SDS011;54072;47.410;8.446;2023-03-25T01:04:21;0.73;;;0.73;;
9142;SDS011;54072;47.410;8.446;2023-03-25T01:07:41;1.60;;;0.73;;
9142;SDS011;54072;47.410;8.446;2023-03-25T01:11:03;2.50;;;0.97;;
9142;SDS011;54072;47.410;8.446;2023-03-25T01:14:23;2.70;;;0.80;;
9142;SDS011;54072;47.410;8.446;2023-03-25T01:17:44;1.40;;;0.70;;
9142;SDS011;54072;47.410;8.446;2023-03-25T01:21:04;1.37;;;0.90;;
9142;SDS011;54072;47.410;8.446;2023-03-25T01:24:26;1.50;;;0.73;;
9142;SDS011;54072;47.410;8.446;2023-03-25T01:27:46;3.30;;;0.70;;
9142;SDS011;54072;47.410;8.446;2023-03-25T01:31:07;1.03;;;0.80;;
9142;SDS011;54072;47.410;8.446;2023-03-25T01:34:28;1.13;;;1.00;;
9142;SDS011;54072;47.410;8.446;2023-03-25T01:37:48;0.70;;;0.70;;
9142;SDS011;54072;47.410;8.446;2023-03-25T01:41:10;0.77;;;0.77;;
9142;SDS011;54072;47.410;8.446;2023-03-25T01:48:11;3.70;;;0.93;;
9142;SDS011;54072;47.410;8.446;2023-03-25T01:51:34;2.20;;;0.97;;
9142;SDS011;54072;47.410;8.446;2023-03-25T01:54:55;1.43;;;0.83;;
9142;SDS011;54072;47.410;8.446;2023-03-25T01:58:21;2.03;;;0.93;;
9142;SDS011;54072;47.410;8.446;2023-03-25T02:01:43;2.00;;;0.70;;
9142;SDS011;54072;47.410;8.446;2023-03-25T02:05:06;1.83;;;0.97;;
9142;SDS011;54072;47.410;8.446;2023-03-25T02:08:28;1.57;;;0.90;;
9142;SDS011;54072;47.410;8.446;2023-03-25T02:11:51;1.73;;;0.90;;
9142;SDS011;54072;47.410;8.446;2023-03-25T02:15:14;1.67;;;0.97;;
9142;SDS011;54072;47.410;8.446;2023-03-25T02:18:41;0.87;;;0.70;;
9142;SDS011;54072;47.410;8.446;2023-03-25T02:22:35;1.33;;;0.80;;
9142;SDS011;54072;47.410;8.446;2023-03-25T02:26:33;1.33;;;0.70;;
9142;SDS011;54072;47.410;8.446;2023-03-25T02:30:30;1.07;;;0.80;;
9142;SDS011;54072;47.410;8.446;2023-03-25T02:34:01;1.47;;;0.70;;
9142;SDS011;54072;47.410;8.446;2023-03-25T02:37:45;0.60;;;0.60;;
9142;SDS011;54072;47.410;8.446;2023-03-25T02:41:07;1.13;;;0.60;;
9142;SDS011;54072;47.410;8.446;2023-03-25T02:44:32;1.70;;;0.70;;
9142;SDS011;54072;47.410;8.446;2023-03-25T02:47:57;1.13;;;0.80;;
9142;SDS011;54072;47.410;8.446;2023-03-25T02:51:22;0.57;;;0.57;;
9142;SDS011;54072;47.410;8.446;2023-03-25T02:54:46;0.53;;;0.53;;
9142;SDS011;54072;47.410;8.446;2023-03-25T02:58:08;1.00;;;0.90;;
9142;SDS011;54072;47.410;8.446;2023-03-25T03:01:29;0.97;;;0.83;;
9142;SDS011;54072;47.410;8.446;2023-03-25T03:04:51;2.63;;;0.73;;
9142;SDS011;54072;47.410;8.446;2023-03-25T03:07:22;0.97;;;0.60;;
9142;SDS011;54072;47.410;8.446;2023-03-25T03:09:57;0.77;;;0.50;;
9142;SDS011;54072;47.410;8.446;2023-03-25T03:12:35;0.43;;;0.43;;
9142;SDS011;54072;47.410;8.446;2023-03-25T03:15:18;1.33;;;0.70;;
9142;SDS011;54072;47.410;8.446;2023-03-25T03:17:53;0.73;;;0.50;;
9142;SDS011;54072;47.410;8.446;2023-03-25T03:20:30;1.33;;;0.50;;
9142;SDS011;54072;47.410;8.446;2023-03-25T03:23:06;0.57;;;0.43;;
9142;SDS011;54072;47.410;8.446;2023-03-25T03:25:39;0.73;;;0.53;;
9142;SDS011;54072;47.410;8.446;2023-03-25T03:28:13;0.40;;;0.33;;
9142;SDS011;54072;47.410;8.446;2023-03-25T03:30:45;0.43;;;0.40;;
9142;SDS011;54072;47.410;8.446;2023-03-25T03:33:15;0.47;;;0.47;;
9142;SDS011;54072;47.410;8.446;2023-03-25T03:36:31;0.77;;;0.40;;
9142;SDS011;54072;47.410;8.446;2023-03-25T03:39:02;0.37;;;0.27;;
9142;SDS011;54072;47.410;8.446;2023-03-25T03:42:26;0.40;;;0.30;;
9142;SDS011;54072;47.410;8.446;2023-03-25T03:44:57;1.30;;;0.37;;
9142;SDS011;54072;47.410;8.446;2023-03-25T03:47:27;1.07;;;0.30;;
9142;SDS011;54072;47.410;8.446;2023-03-25T03:49:57;1.07;;;0.30;;
9142;SDS011;54072;47.410;8.446;2023-03-25T03:52:27;0.77;;;0.30;;
9142;SDS011;54072;47.410;8.446;2023-03-25T03:54:59;0.50;;;0.40;;
9142;SDS011;54072;47.410;8.446;2023-03-25T03:58:23;0.63;;;0.47;;
9142;SDS011;54072;47.410;8.446;2023-03-25T04:01:47;0.37;;;0.37;;
9142;SDS011;54072;47.410;8.446;2023-03-25T04:05:10;0.40;;;0.40;;
9142;SDS011;54072;47.410;8.446;2023-03-25T04:08:36;0.97;;;0.60;;
9142;SDS011;54072;47.410;8.446;2023-03-25T04:12:01;0.67;;;0.40;;
9142;SDS011;54072;47.410;8.446;2023-03-25T04:15:23;0.30;;;0.30;;
9142;SDS011;54072;47.410;8.446;2023-03-25T04:18:43;0.23;;;0.23;;
9142;SDS011;54072;47.410;8.446;2023-03-25T04:22:04;0.50;;;0.50;;
9142;SDS011;54072;47.410;8.446;2023-03-25T04:25:25;0.60;;;0.33;;
9142;SDS011;54072;47.410;8.446;2023-03-25T04:28:46;0.40;;;0.40;;
9142;SDS011;54072;47.410;8.446;2023-03-25T04:32:10;0.53;;;0.30;;
9142;SDS011;54072;47.410;8.446;2023-03-25T04:35:31;0.40;;;0.40;;
9142;SDS011;54072;47.410;8.446;2023-03-25T04:38:54;1.27;;;0.40;;
9142;SDS011;54072;47.410;8.446;2023-03-25T04:42:14;0.30;;;0.30;;
9142;SDS011;54072;47.410;8.446;2023-03-25T04:45:35;0.40;;;0.40;;
9142;SDS011;54072;47.410;8.446;2023-03-25T04:48:57;0.30;;;0.30;;
9142;SDS011;54072;47.410;8.446;2023-03-25T04:52:17;0.40;;;0.40;;
9142;SDS011;54072;47.410;8.446;2023-03-25T04:55:38;0.30;;;0.30;;
9142;SDS011;54072;47.410;8.446;2023-03-25T04:58:58;1.93;;;0.60;;
9142;SDS011;54072;47.410;8.446;2023-03-25T05:02:18;0.40;;;0.40;;
9142;SDS011;54072;47.410;8.446;2023-03-25T05:05:42;1.03;;;0.40;;
9142;SDS011;54072;47.410;8.446;2023-03-25T05:09:04;0.40;;;0.40;;
9142;SDS011;54072;47.410;8.446;2023-03-25T05:12:24;0.87;;;0.40;;
9142;SDS011;54072;47.410;8.446;2023-03-25T05:15:45;0.30;;;0.30;;
9142;SDS011;54072;47.410;8.446;2023-03-25T05:19:06;1.30;;;0.50;;
9142;SDS011;54072;47.410;8.446;2023-03-25T05:22:28;1.40;;;0.50;;
9142;SDS011;54072;47.410;8.446;2023-03-25T05:25:49;0.67;;;0.50;;
9142;SDS011;54072;47.410;8.446;2023-03-25T05:28:17;0.40;;;0.40;;
9142;SDS011;54072;47.410;8.446;2023-03-25T05:31:35;0.60;;;0.60;;
9142;SDS011;54072;47.410;8.446;2023-03-25T05:34:58;0.47;;;0.47;;
9142;SDS011;54072;47.410;8.446;2023-03-25T05:38:20;0.40;;;0.40;;
9142;SDS011;54072;47.410;8.446;2023-03-25T05:41:40;0.50;;;0.50;;
9142;SDS011;54072;47.410;8.446;2023-03-25T05:45:03;0.50;;;0.50;;
9142;SDS011;54072;47.410;8.446;2023-03-25T05:48:23;1.87;;;0.63;;
9142;SDS011;54072;47.410;8.446;2023-03-25T05:51:43;1.13;;;0.57;;
9142;SDS011;54072;47.410;8.446;2023-03-25T05:55:09;1.93;;;0.70;;
9142;SDS011;54072;47.410;8.446;2023-03-25T05:58:31;1.50;;;0.80;;
9142;SDS011;54072;47.410;8.446;2023-03-25T06:01:51;1.90;;;0.70;;
9142;SDS011;54072;47.410;8.446;2023-03-25T06:05:12;0.97;;;0.77;;
9142;SDS011;54072;47.410;8.446;2023-03-25T06:08:39;1.60;;;0.70;;
9142;SDS011;54072;47.410;8.446;2023-03-25T06:12:02;1.43;;;0.77;;
9142;SDS011;54072;47.410;8.446;2023-03-25T06:15:22;0.60;;;0.60;;
9142;SDS011;54072;47.410;8.446;2023-03-25T06:18:43;0.47;;;0.40;;
9142;SDS011;54072;47.410;8.446;2023-03-25T06:22:05;0.60;;;0.60;;
9142;SDS011;54072;47.410;8.446;2023-03-25T06:25:25;0.70;;;0.70;;
9142;SDS011;54072;47.410;8.446;2023-03-25T06:28:48;0.90;;;0.83;;
9142;SDS011;54072;47.410;8.446;2023-03-25T06:32:08;3.20;;;0.87;;
9142;SDS011;54072;47.410;8.446;2023-03-25T06:35:31;0.50;;;0.50;;
9142;SDS011;54072;47.410;8.446;2023-03-25T06:38:52;0.73;;;0.73;;
9142;SDS011;54072;47.410;8.446;2023-03-25T06:42:14;0.77;;;0.77;;
9142;SDS011;54072;47.410;8.446;2023-03-25T06:45:36;0.97;;;0.83;;
9142;SDS011;54072;47.410;8.446;2023-03-25T06:48:56;0.70;;;0.70;;
9142;SDS011;54072;47.410;8.446;2023-03-25T06:52:16;2.70;;;1.00;;
9142;SDS011;54072;47.410;8.446;2023-03-25T06:55:37;1.20;;;1.07;;
9142;SDS011;54072;47.410;8.446;2023-03-25T06:58:57;0.83;;;0.60;;
9142;SDS011;54072;47.410;8.446;2023-03-25T07:02:19;1.40;;;0.43;;
9142;SDS011;54072;47.410;8.446;2023-03-25T07:05:40;0.77;;;0.43;;
9142;SDS011;54072;47.410;8.446;2023-03-25T07:09:00;1.27;;;0.70;;
9142;SDS011;54072;47.410;8.446;2023-03-25T07:12:21;0.83;;;0.63;;
9142;SDS011;54072;47.410;8.446;2023-03-25T07:15:41;3.07;;;0.77;;
9142;SDS011;54072;47.410;8.446;2023-03-25T07:19:03;0.63;;;0.63;;
9142;SDS011;54072;47.410;8.446;2023-03-25T07:22:23;1.43;;;0.73;;
9142;SDS011;54072;47.410;8.446;2023-03-25T07:25:44;1.07;;;0.73;;
9142;SDS011;54072;47.410;8.446;2023-03-25T07:29:04;2.83;;;0.70;;
9142;SDS011;54072;47.410;8.446;2023-03-25T07:32:24;3.07;;;0.70;;
9142;SDS011;54072;47.410;8.446;2023-03-25T07:35:46;1.30;;;0.70;;
9142;SDS011;54072;47.410;8.446;2023-03-25T07:39:06;3.73;;;1.00;;
9142;SDS011;54072;47.410;8.446;2023-03-25T07:42:26;1.40;;;0.87;;
9142;SDS011;54072;47.410;8.446;2023-03-25T07:45:47;0.73;;;0.73;;
9142;SDS011;54072;47.410;8.446;2023-03-25T07:49:07;1.37;;;0.90;;
9142;SDS011;54072;47.410;8.446;2023-03-25T07:52:28;2.67;;;0.90;;
9142;SDS011;54072;47.410;8.446;2023-03-25T07:55:49;0.80;;;0.80;;
9142;SDS011;54072;47.410;8.446;2023-03-25T07:59:09;1.20;;;1.10;;
9142;SDS011;54072;47.410;8.446;2023-03-25T08:02:31;1.67;;;0.80;;
9142;SDS011;54072;47.410;8.446;2023-03-25T08:05:53;2.07;;;1.10;;
9142;SDS011;54072;47.410;8.446;2023-03-25T08:09:14;2.43;;;0.80;;
9142;SDS011;54072;47.410;8.446;2023-03-25T08:12:35;2.13;;;1.17;;
9142;SDS011;54072;47.410;8.446;2023-03-25T08:15:55;1.87;;;0.80;;
9142;SDS011;54072;47.410;8.446;2023-03-25T08:19:16;3.67;;;1.20;;
9142;SDS011;54072;47.410;8.446;2023-03-25T08:21:44;4.87;;;1.13;;
9142;SDS011;54072;47.410;8.446;2023-03-25T08:24:11;1.77;;;0.90;;
9142;SDS011;54072;47.410;8.446;2023-03-25T08:27:34;4.33;;;1.10;;
9142;SDS011;54072;47.410;8.446;2023-03-25T08:30:54;2.40;;;1.10;;
9142;SDS011;54072;47.410;8.446;2023-03-25T08:34:17;0.83;;;0.77;;
9142;SDS011;54072;47.410;8.446;2023-03-25T08:37:38;0.83;;;0.80;;
9142;SDS011;54072;47.410;8.446;2023-03-25T08:41:01;4.70;;;1.10;;
9142;SDS011;54072;47.410;8.446;2023-03-25T08:44:24;3.43;;;1.10;;
9142;SDS011;54072;47.410;8.446;2023-03-25T08:47:45;3.03;;;1.30;;
9142;SDS011;54072;47.410;8.446;2023-03-25T08:51:05;1.73;;;0.90;;
9142;SDS011;54072;47.410;8.446;2023-03-25T08:54:27;5.10;;;1.10;;
9142;SDS011;54072;47.410;8.446;2023-03-25T08:57:48;1.20;;;1.10;;
9142;SDS011;54072;47.410;8.446;2023-03-25T09:01:09;2.50;;;0.90;;
9142;SDS011;54072;47.410;8.446;2023-03-25T09:04:29;2.40;;;0.90;;
9142;SDS011;54072;47.410;8.446;2023-03-25T09:07:49;1.60;;;0.87;;
9142;SDS011;54072;47.410;8.446;2023-03-25T09:11:09;1.80;;;0.83;;
9142;SDS011;54072;47.410;8.446;2023-03-25T09:14:31;1.20;;;0.93;;
9142;SDS011;54072;47.410;8.446;2023-03-25T09:17:51;2.20;;;0.97;;
9142;SDS011;54072;47.410;8.446;2023-03-25T09:21:12;2.63;;;1.20;;
9142;SDS011;54072;47.410;8.446;2023-03-25T09:24:32;1.87;;;1.00;;
9142;SDS011;54072;47.410;8.446;2023-03-25T09:27:51;4.20;;;0.87;;
9142;SDS011;54072;47.410;8.446;2023-03-25T09:31:13;2.90;;;1.00;;
9142;SDS011;54072;47.410;8.446;2023-03-25T09:34:34;2.20;;;1.00;;
9142;SDS011;54072;47.410;8.446;2023-03-25T09:37:22;2.03;;;0.77;;
9142;SDS011;54072;47.410;8.446;2023-03-25T09:40:03;1.03;;;0.80;;
9142;SDS011;54072;47.410;8.446;2023-03-25T09:42:48;1.67;;;0.80;;
9142;SDS011;54072;47.410;8.446;2023-03-25T09:46:06;3.40;;;0.90;;
9142;SDS011;54072;47.410;8.446;2023-03-25T09:49:17;1.77;;;0.70;;
9142;SDS011;54072;47.410;8.446;2023-03-25T09:52:19;0.80;;;0.80;;
9142;SDS011;54072;47.410;8.446;2023-03-25T09:54:59;0.77;;;0.67;;
9142;SDS011;54072;47.410;8.446;2023-03-25T09:57:52;3.33;;;0.67;;
9142;SDS011;54072;47.410;8.446;2023-03-25T10:00:55;2.50;;;0.87;;
9142;SDS011;54072;47.410;8.446;2023-03-25T10:03:56;3.13;;;0.73;;
9142;SDS011;54072;47.410;8.446;2023-03-25T10:07:01;0.50;;;0.50;;
9142;SDS011;54072;47.410;8.446;2023-03-25T10:10:04;0.50;;;0.50;;
9142;SDS011;54072;47.410;8.446;2023-03-25T10:13:09;0.97;;;0.70;;
9142;SDS011;54072;47.410;8.446;2023-03-25T10:16:15;1.30;;;0.70;;
9142;SDS011;54072;47.410;8.446;2023-03-25T10:19:15;2.03;;;0.90;;
9142;SDS011;54072;47.410;8.446;2023-03-25T10:22:16;0.73;;;0.63;;
9142;SDS011;54072;47.410;8.446;2023-03-25T10:25:28;1.17;;;0.70;;
9142;SDS011;54072;47.410;8.446;2023-03-25T10:28:47;2.20;;;0.73;;
9142;SDS011;54072;47.410;8.446;2023-03-25T10:31:30;0.50;;;0.50;;
9142;SDS011;54072;47.410;8.446;2023-03-25T10:34:40;0.57;;;0.47;;
9142;SDS011;54072;47.410;8.446;2023-03-25T10:37:38;1.97;;;0.70;;
9142;SDS011;54072;47.410;8.446;2023-03-25T10:40:16;1.73;;;1.00;;
9142;SDS011;54072;47.410;8.446;2023-03-25T10:43:30;0.87;;;0.80;;
9142;SDS011;54072;47.410;8.446;2023-03-25T10:46:38;2.03;;;0.80;;
9142;SDS011;54072;47.410;8.446;2023-03-25T10:49:55;1.13;;;0.80;;
9142;SDS011;54072;47.410;8.446;2023-03-25T10:53:14;0.70;;;0.70;;
9142;SDS011;54072;47.410;8.446;2023-03-25T10:56:21;1.13;;;1.03;;
9142;SDS011;54072;47.410;8.446;2023-03-25T10:59:45;1.40;;;0.77;;
9142;SDS011;54072;47.410;8.446;2023-03-25T11:02:31;2.47;;;0.80;;
9142;SDS011;54072;47.410;8.446;2023-03-25T11:05:20;2.03;;;0.80;;
9142;SDS011;54072;47.410;8.446;2023-03-25T11:07:59;2.57;;;1.17;;
9142;SDS011;54072;47.410;8.446;2023-03-25T11:10:46;1.10;;;1.00;;
9142;SDS011;54072;47.410;8.446;2023-03-25T11:13:16;2.03;;;0.90;;
9142;SDS011;54072;47.410;8.446;2023-03-25T11:15:47;1.17;;;0.80;;
9142;SDS011;54072;47.410;8.446;2023-03-25T11:18:18;0.90;;;0.90;;
9142;SDS011;54072;47.410;8.446;2023-03-25T11:20:51;1.27;;;0.57;;
9142;SDS011;54072;47.410;8.446;2023-03-25T11:23:23;0.63;;;0.63;;
9142;SDS011;54072;47.410;8.446;2023-03-25T11:25:54;0.63;;;0.63;;
9142;SDS011;54072;47.410;8.446;2023-03-25T11:28:32;0.97;;;0.70;;
9142;SDS011;54072;47.410;8.446;2023-03-25T11:31:13;0.73;;;0.70;;
9142;SDS011;54072;47.410;8.446;2023-03-25T11:33:43;1.10;;;0.80;;
9142;SDS011;54072;47.410;8.446;2023-03-25T11:36:24;1.63;;;0.77;;
9142;SDS011;54072;47.410;8.446;2023-03-25T11:38:56;1.03;;;0.90;;
9142;SDS011;54072;47.410;8.446;2023-03-25T11:41:29;2.03;;;0.90;;
9142;SDS011;54072;47.410;8.446;2023-03-25T11:43:59;0.97;;;0.97;;
9142;SDS011;54072;47.410;8.446;2023-03-25T11:46:28;1.60;;;1.00;;
9142;SDS011;54072;47.410;8.446;2023-03-25T11:48:57;1.00;;;1.00;;
9142;SDS011;54072;47.410;8.446;2023-03-25T11:51:38;2.37;;;0.90;;
9142;SDS011;54072;47.410;8.446;2023-03-25T11:54:06;0.53;;;0.50;;
9142;SDS011;54072;47.410;8.446;2023-03-25T11:56:36;1.43;;;0.93;;
9142;SDS011;54072;47.410;8.446;2023-03-25T11:59:07;0.60;;;0.60;;
9142;SDS011;54072;47.410;8.446;2023-03-25T12:01:37;0.60;;;0.40;;
9142;SDS011;54072;47.410;8.446;2023-03-25T12:04:11;0.53;;;0.53;;
9142;SDS011;54072;47.410;8.446;2023-03-25T12:06:52;0.73;;;0.60;;
9142;SDS011;54072;47.410;8.446;2023-03-25T12:09:24;0.70;;;0.70;;
9142;SDS011;54072;47.410;8.446;2023-03-25T12:11:59;1.37;;;0.60;;
9142;SDS011;54072;47.410;8.446;2023-03-25T12:14:36;1.07;;;0.90;;
9142;SDS011;54072;47.410;8.446;2023-03-25T12:17:13;0.87;;;0.70;;
9142;SDS011;54072;47.410;8.446;2023-03-25T12:19:47;0.50;;;0.50;;
9142;SDS011;54072;47.410;8.446;2023-03-25T12:22:27;1.10;;;0.70;;
9142;SDS011;54072;47.410;8.446;2023-03-25T12:25:05;1.00;;;0.60;;
9142;SDS011;54072;47.410;8.446;2023-03-25T12:27:47;0.70;;;0.70;;
9142;SDS011;54072;47.410;8.446;2023-03-25T12:30:24;1.77;;;0.73;;
9142;SDS011;54072;47.410;8.446;2023-03-25T12:32:59;0.77;;;0.70;;
9142;SDS011;54072;47.410;8.446;2023-03-25T12:35:34;1.53;;;0.80;;
9142;SDS011;54072;47.410;8.446;2023-03-25T12:38:14;0.50;;;0.50;;
9142;SDS011;54072;47.410;8.446;2023-03-25T12:40:55;0.63;;;0.63;;
9142;SDS011;54072;47.410;8.446;2023-03-25T12:43:55;2.00;;;0.80;;
9142;SDS011;54072;47.410;8.446;2023-03-25T12:49:28;0.70;;;0.70;;
9142;SDS011;54072;47.410;8.446;2023-03-25T12:52:10;1.03;;;0.60;;
9142;SDS011;54072;47.410;8.446;2023-03-25T12:54:47;0.73;;;0.73;;
9142;SDS011;54072;47.410;8.446;2023-03-25T12:57:25;1.77;;;1.47;;
9142;SDS011;54072;47.410;8.446;2023-03-25T13:00:02;0.80;;;0.60;;
9142;SDS011;54072;47.410;8.446;2023-03-25T13:02:51;0.43;;;0.43;;
9142;SDS011;54072;47.410;8.446;2023-03-25T13:05:26;0.97;;;0.73;;
9142;SDS011;54072;47.410;8.446;2023-03-25T13:07:58;0.60;;;0.60;;
9142;SDS011;54072;47.410;8.446;2023-03-25T13:10:32;0.57;;;0.53;;
9142;SDS011;54072;47.410;8.446;2023-03-25T13:13:01;0.50;;;0.50;;
9142;SDS011;54072;47.410;8.446;2023-03-25T13:15:34;0.50;;;0.50;;
9142;SDS011;54072;47.410;8.446;2023-03-25T13:18:03;1.07;;;0.60;;
9142;SDS011;54072;47.410;8.446;2023-03-25T13:20:35;0.90;;;0.80;;
9142;SDS011;54072;47.410;8.446;2023-03-25T13:23:04;0.80;;;0.70;;
9142;SDS011;54072;47.410;8.446;2023-03-25T13:25:39;1.03;;;0.67;;
9142;SDS011;54072;47.410;8.446;2023-03-25T13:28:10;1.00;;;0.50;;
9142;SDS011;54072;47.410;8.446;2023-03-25T13:30:39;0.63;;;0.50;;
9142;SDS011;54072;47.410;8.446;2023-03-25T13:33:09;0.90;;;0.50;;
9142;SDS011;54072;47.410;8.446;2023-03-25T13:35:41;0.40;;;0.40;;
9142;SDS011;54072;47.410;8.446;2023-03-25T13:38:12;0.93;;;0.80;;
9142;SDS011;54072;47.410;8.446;2023-03-25T13:40:45;0.63;;;0.63;;
9142;SDS011;54072;47.410;8.446;2023-03-25T13:43:25;0.63;;;0.63;;
9142;SDS011;54072;47.410;8.446;2023-03-25T13:45:57;0.90;;;0.80;;
9142;SDS011;54072;47.410;8.446;2023-03-25T13:48:29;1.13;;;0.70;;
9142;SDS011;54072;47.410;8.446;2023-03-25T13:51:02;0.50;;;0.50;;
9142;SDS011;54072;47.410;8.446;2023-03-25T13:53:31;0.73;;;0.53;;
9142;SDS011;54072;47.410;8.446;2023-03-25T13:59:08;0.37;;;0.37;;
9142;SDS011;54072;47.410;8.446;2023-03-25T14:01:49;0.43;;;0.43;;
9142;SDS011;54072;47.410;8.446;2023-03-25T14:04:32;0.57;;;0.50;;
9142;SDS011;54072;47.410;8.446;2023-03-25T14:12:56;0.63;;;0.50;;
9142;SDS011;54072;47.410;8.446;2023-03-25T14:15:28;0.47;;;0.40;;
9142;SDS011;54072;47.410;8.446;2023-03-25T14:17:58;0.93;;;0.50;;
9142;SDS011;54072;47.410;8.446;2023-03-25T14:20:26;0.40;;;0.40;;
9142;SDS011;54072;47.410;8.446;2023-03-25T14:23:01;0.77;;;0.40;;
9142;SDS011;54072;47.410;8.446;2023-03-25T14:25:32;0.70;;;0.47;;
9142;SDS011;54072;47.410;8.446;2023-03-25T14:28:06;0.40;;;0.40;;
9142;SDS011;54072;47.410;8.446;2023-03-25T14:30:35;0.70;;;0.70;;
9142;SDS011;54072;47.410;8.446;2023-03-25T14:33:03;1.30;;;0.57;;
9142;SDS011;54072;47.410;8.446;2023-03-25T14:35:47;0.50;;;0.40;;
9142;SDS011;54072;47.410;8.446;2023-03-25T14:41:16;1.27;;;0.70;;
9142;SDS011;54072;47.410;8.446;2023-03-25T14:44:33;0.80;;;0.53;;
9142;SDS011;54072;47.410;8.446;2023-03-25T14:49:53;1.47;;;0.47;;
9142;SDS011;54072;47.410;8.446;2023-03-25T14:52:27;0.70;;;0.50;;
9142;SDS011;54072;47.410;8.446;2023-03-25T14:55:00;0.60;;;0.60;;
9142;SDS011;54072;47.410;8.446;2023-03-25T14:57:37;1.93;;;0.60;;
9142;SDS011;54072;47.410;8.446;2023-03-25T15:00:08;0.97;;;0.70;;
9142;SDS011;54072;47.410;8.446;2023-03-25T15:02:42;1.17;;;0.60;;
9142;SDS011;54072;47.410;8.446;2023-03-25T15:05:16;2.00;;;0.60;;
9142;SDS011;54072;47.410;8.446;2023-03-25T15:07:46;1.77;;;0.53;;
9142;SDS011;54072;47.410;8.446;2023-03-25T15:10:21;1.60;;;0.90;;
9142;SDS011;54072;47.410;8.446;2023-03-25T15:12:52;0.40;;;0.40;;
9142;SDS011;54072;47.410;8.446;2023-03-25T15:15:28;1.37;;;0.70;;
9142;SDS011;54072;47.410;8.446;2023-03-25T15:17:58;0.90;;;0.50;;
9142;SDS011;54072;47.410;8.446;2023-03-25T15:20:27;0.50;;;0.50;;
9142;SDS011;54072;47.410;8.446;2023-03-25T15:25:47;1.43;;;0.80;;
9142;SDS011;54072;47.410;8.446;2023-03-25T15:28:18;0.60;;;0.53;;
9142;SDS011;54072;47.410;8.446;2023-03-25T15:30:56;0.83;;;0.53;;
9142;SDS011;54072;47.410;8.446;2023-03-25T15:33:31;0.60;;;0.60;;
9142;SDS011;54072;47.410;8.446;2023-03-25T15:36:17;1.00;;;0.50;;
9142;SDS011;54072;47.410;8.446;2023-03-25T15:39:07;0.63;;;0.63;;
9142;SDS011;54072;47.410;8.446;2023-03-25T15:44:40;1.60;;;0.60;;
9142;SDS011;54072;47.410;8.446;2023-03-25T15:50:36;0.50;;;0.50;;
9142;SDS011;54072;47.410;8.446;2023-03-25T15:53:18;1.07;;;0.67;;
9142;SDS011;54072;47.410;8.446;2023-03-25T15:56:01;0.83;;;0.60;;
9142;SDS011;54072;47.410;8.446;2023-03-25T15:58:34;1.23;;;0.80;;
9142;SDS011;54072;47.410;8.446;2023-03-25T16:01:18;0.83;;;0.70;;
9142;SDS011;54072;47.410;8.446;2023-03-25T16:03:52;1.23;;;0.90;;
9142;SDS011;54072;47.410;8.446;2023-03-25T16:06:23;0.70;;;0.70;;
9142;SDS011;54072;47.410;8.446;2023-03-25T16:08:53;0.70;;;0.70;;
9142;SDS011;54072;47.410;8.446;2023-03-25T16:11:23;0.83;;;0.70;;
9142;SDS011;54072;47.410;8.446;2023-03-25T16:14:05;0.93;;;0.87;;
9142;SDS011;54072;47.410;8.446;2023-03-25T16:16:35;1.43;;;0.83;;
9142;SDS011;54072;47.410;8.446;2023-03-25T16:19:08;0.77;;;0.73;;
9142;SDS011;54072;47.410;8.446;2023-03-25T16:21:40;1.70;;;0.90;;
9142;SDS011;54072;47.410;8.446;2023-03-25T16:24:10;3.90;;;3.23;;
9142;SDS011;54072;47.410;8.446;2023-03-25T16:27:34;1.07;;;1.07;;
9142;SDS011;54072;47.410;8.446;2023-03-25T16:30:55;2.30;;;1.10;;
9142;SDS011;54072;47.410;8.446;2023-03-25T16:34:21;4.37;;;1.20;;
9142;SDS011;54072;47.410;8.446;2023-03-25T16:36:52;3.53;;;1.23;;
9142;SDS011;54072;47.410;8.446;2023-03-25T16:40:13;1.87;;;1.00;;
9142;SDS011;54072;47.410;8.446;2023-03-25T16:43:37;4.13;;;1.13;;
9142;SDS011;54072;47.410;8.446;2023-03-25T16:46:58;3.50;;;1.20;;
9142;SDS011;54072;47.410;8.446;2023-03-25T16:50:20;4.93;;;1.03;;
9142;SDS011;54072;47.410;8.446;2023-03-25T16:53:41;3.33;;;1.00;;
9142;SDS011;54072;47.410;8.446;2023-03-25T16:57:04;4.70;;;1.13;;
9142;SDS011;54072;47.410;8.446;2023-03-25T17:00:39;2.03;;;1.23;;
9142;SDS011;54072;47.410;8.446;2023-03-25T17:04:10;2.80;;;1.30;;
9142;SDS011;54072;47.410;8.446;2023-03-25T17:07:42;3.93;;;1.37;;
9142;SDS011;54072;47.410;8.446;2023-03-25T17:11:03;5.50;;;1.60;;
9142;SDS011;54072;47.410;8.446;2023-03-25T17:14:28;7.00;;;1.50;;
9142;SDS011;54072;47.410;8.446;2023-03-25T17:17:50;2.93;;;1.13;;
9142;SDS011;54072;47.410;8.446;2023-03-25T17:21:20;3.63;;;1.13;;
9142;SDS011;54072;47.410;8.446;2023-03-25T17:24:49;3.30;;;1.20;;
9142;SDS011;54072;47.410;8.446;2023-03-25T17:28:28;2.23;;;1.33;;
9142;SDS011;54072;47.410;8.446;2023-03-25T17:31:53;4.33;;;1.40;;
9142;SDS011;54072;47.410;8.446;2023-03-25T17:35:18;3.70;;;1.87;;
9142;SDS011;54072;47.410;8.446;2023-03-25T17:38:40;2.23;;;1.20;;
9142;SDS011;54072;47.410;8.446;2023-03-25T17:42:03;3.73;;;2.03;;
9142;SDS011;54072;47.410;8.446;2023-03-25T17:45:24;4.43;;;1.80;;
9142;SDS011;54072;47.410;8.446;2023-03-25T17:48:45;4.37;;;1.60;;
9142;SDS011;54072;47.410;8.446;2023-03-25T17:52:05;1.43;;;1.10;;
9142;SDS011;54072;47.410;8.446;2023-03-25T17:55:26;2.17;;;1.37;;
9142;SDS011;54072;47.410;8.446;2023-03-25T17:58:51;1.50;;;1.13;;
9142;SDS011;54072;47.410;8.446;2023-03-25T18:02:13;2.33;;;2.03;;
9142;SDS011;54072;47.410;8.446;2023-03-25T18:05:38;4.20;;;1.80;;
9142;SDS011;54072;47.410;8.446;2023-03-25T18:08:58;1.63;;;1.27;;
9142;SDS011;54072;47.410;8.446;2023-03-25T18:12:19;1.73;;;1.40;;
9142;SDS011;54072;47.410;8.446;2023-03-25T18:15:41;1.83;;;1.40;;
9142;SDS011;54072;47.410;8.446;2023-03-25T18:19:01;2.03;;;1.27;;
9142;SDS011;54072;47.410;8.446;2023-03-25T18:22:22;3.67;;;1.50;;
9142;SDS011;54072;47.410;8.446;2023-03-25T18:25:42;2.17;;;1.10;;
9142;SDS011;54072;47.410;8.446;2023-03-25T18:29:04;3.20;;;1.20;;
9142;SDS011;54072;47.410;8.446;2023-03-25T18:32:26;2.43;;;0.90;;
9142;SDS011;54072;47.410;8.446;2023-03-25T18:35:46;2.27;;;1.10;;
9142;SDS011;54072;47.410;8.446;2023-03-25T18:39:09;1.20;;;1.10;;
9142;SDS011;54072;47.410;8.446;2023-03-25T18:42:36;0.83;;;0.83;;
9142;SDS011;54072;47.410;8.446;2023-03-25T18:45:56;1.73;;;1.10;;
9142;SDS011;54072;47.410;8.446;2023-03-25T18:49:18;1.17;;;0.90;;
9142;SDS011;54072;47.410;8.446;2023-03-25T18:52:42;2.27;;;0.90;;